• Join FlightAware (Why Join?)
  • Login
  • US Flag 
09:18AM EDT


 

Airport Tracker/Info


-or-


 

Live Flight TrackerFlight Track Log ✈ AAL1326 ✈ 06-Apr-2013 ✈ KMCI - KORD

Flight Track Log - Related Links

Times and Time Zones

All times are in EDT time to prevent confusion due to time zone crossing. See the AAL1326 flight status page for this flight to view local times or setup timezone preferences in your user account.

Time Position Orientation Groundspeed Altitude Reporting Facility
EDT Latitude Longitude Course Direction KTS MPH feet Rate Location/Type
04:36PM 39.3000 -94.7333 47° Northeast 168 193 1,800  Level Kansas City TRACON
04:37PM 39.3000 -94.7500 270° West 164 189 2,900 1,920 Climbing Kansas City TRACON
04:37PM 39.3011 -94.7569 282° West 169 194 3,100 2,040 Climbing Kansas City Center
04:38PM 39.3578 -94.7767 345° North 253 291 5,500 2,460 Climbing Kansas City Center
04:39PM 39.4972 -94.4596 41° Northeast  Level FlightAware Approximate
04:39PM 39.3986 -94.6947 57° Northeast 282 325 8,300  Level Kansas City Center
04:40PM 39.5780 -94.3641 45° Northeast  Level FlightAware Approximate
04:40PM 39.4522 -94.5850 58° Northeast 326 375 10,800  Level Kansas City Center
04:41PM 39.6556 -94.2642 45° Northeast  Level FlightAware Approximate
04:41PM 39.5181 -94.4878 49° Northeast 378 435 12,600  Level Kansas City Center
04:42PM 39.7305 -94.1607 47° Northeast  Level FlightAware Approximate
04:42PM 39.6028 -94.3653 48° Northeast 408 470 15,800  Level Kansas City Center
04:43PM 39.6775 -94.2567 48° Northeast 420 483 18,600 2,400 Climbing Kansas City Center
04:44PM 39.7569 -94.1425 48° Northeast 443 510 20,900 2,400 Climbing Kansas City Center
04:45PM 39.8472 -94.0081 49° Northeast 462 532 23,500 2,220 Climbing Kansas City Center
04:46PM 39.9353 -93.8836 47° Northeast 469 540 25,600 1,860 Climbing Kansas City Center
04:47PM 40.0244 -93.7506 49° Northeast 484 557 27,400 1,620 Climbing Kansas City Center
04:48PM 40.0756 -93.5408 72° East 512 589 28,900 1,620 Climbing Kansas City Center
04:49PM 40.1172 -93.3594 73° East 523 602 30,800 1,980 Climbing Kansas City Center
04:50PM 40.1578 -93.1842 73° East 513 590 33,000 1,080 Climbing Kansas City Center
04:51PM 40.2017 -92.9942 73° East 496 571 33,000  Level Kansas City Center
04:53PM 40.2403 -92.8281 73° East 495 570 33,000  Level Kansas City Center
04:54PM 40.2786 -92.6614 73° East 498 573 33,000  Level Kansas City Center
04:55PM 40.3225 -92.4669 73° East 499 574 33,000  Level Kansas City Center
04:56PM 40.3589 -92.3011 74° East 510 587 33,000  Level Kansas City Center
04:57PM 40.3975 -92.1267 74° East 507 583 33,000  Level Kansas City Center
04:58PM 40.4425 -91.9144 74° East 507 583 33,000  Level Kansas City Center
04:59PM 40.4808 -91.7383 74° East 507 583 33,000  Level Kansas City Center
04:59PM 40.5119 -91.5981 74° East 504 580 33,000  Level Chicago Center
05:00PM 40.5497 -91.4222 74° East 504 580 33,000  Level Chicago Center
05:01PM 40.6086 -91.2433 67° East 504 580 33,000  Level Chicago Center
05:03PM 40.6661 -91.0775 65° Northeast 498 573 33,000  Level Chicago Center
05:04PM 40.7225 -90.9103 66° East 499 574 33,000  Level Chicago Center
05:05PM 40.7789 -90.7433 66° East 498 573 33,000  Level Chicago Center
05:06PM 40.8353 -90.5756 66° East 498 573 33,000  Level Chicago Center
05:07PM 40.8917 -90.4092 66° East 494 568 33,000 -660 Level Chicago Center
05:08PM 40.9467 -90.2436 66° East 493 567 31,700 -1,800 Descending Chicago Center
05:09PM 41.0011 -90.0747 67° East 491 565 29,400 -2,220 Descending Chicago Center
05:10PM 41.0544 -89.9111 67° East 480 552 27,200 -2,400 Descending Chicago Center
05:11PM 41.1172 -89.7200 66° East 468 539 24,500 -1,680 Descending Chicago Center
05:12PM 41.1678 -89.5669 66° East 453 521 23,800 -1,200 Descending Chicago Center
05:13PM 41.2283 -89.4217 61° Northeast 448 516 22,100 -2,160 Descending Chicago Center
05:14PM 41.2869 -89.2758 62° Northeast 447 514 19,400 -2,820 Descending Chicago Center
05:15PM 41.3494 -89.1164 62° Northeast 438 504 16,400 -2,700 Descending Chicago Center
05:16PM 41.4053 -88.9747 62° Northeast 435 501 13,900 -2,400 Descending Chicago Center
05:17PM 41.4625 -88.8331 62° Northeast 432 497 11,600 -1,440 Descending Chicago Center
05:18PM 41.5156 -88.6986 62° Northeast 413 475 11,000 -300 Descending Chicago Center
05:19PM 41.5683 -88.5639 62° Northeast 410 472 11,000  Level Chicago Center
05:20PM 41.6267 -88.4342 59° Northeast 407 468 11,000  Level Chicago Center
05:21PM 41.6964 -88.3147 52° Northeast 405 466 11,000 -420 Level Chicago Center
05:22PM 41.7586 -88.2111 51° Northeast 357 411 10,200 -1,080 Descending Chicago Center
05:23PM 41.8214 -88.1181 48° Northeast 343 395 8,800 -1,440 Descending Chicago Center
05:24PM 41.9283 -88.1006 North 325 374 7,300 -900 Descending Chicago Center
05:25PM 42.0000 -88.1000 360° North 256 295 7,000 -420 Descending Chicago TRACON
05:26PM 42.0489 -88.1336 333° Northwest 211 243 6,500 -1,020 Descending Chicago Center
05:27PM 42.0911 -88.1767 323° Northwest 196 226 5,000 -1,320 Descending Chicago Center
05:28PM 42.1458 -88.1878 351° North 233 268 3,800 -1,020 Descending Chicago Center
05:29PM 42.1444 -88.1236 92° East 194 223 3,000 -480 Descending Chicago Center
05:30PM 42.1167 -88.0833 133° Southeast 163 188 3,000  Level Chicago TRACON
05:31PM 42.0833 -88.0333 132° Southeast 168 193 3,000  Level Chicago TRACON